Time;durP1;ratioP1;P1;durP2;ratioP2;P2;SDS_P1;SDS_P2;PMS_P1;PMS_P2;Temp;Humidity;BMP_temperature;BMP_pressure;BME280_temperature;BME280_humidity;BME280_pressure;Samples;Min_cycle;Max_cycle;Signal;HPM_P1;HPM_P2
2023/12/13 00:00:53;;;;;;;31.15;16.50;;;;;;;;;;5009965;28;20506;-68
2023/12/13 00:03:19;;;;;;;33.03;15.93;;;;;;;;;;5009880;28;20128;-72
2023/12/13 00:05:48;;;;;;;31.25;15.20;;;;;;;;;;4999814;28;20169;-71
2023/12/13 00:08:19;;;;;;;30.30;14.98;;;;;;;;;;5006576;28;20054;-68
2023/12/13 00:10:45;;;;;;;30.07;15.20;;;;;;;;;;5008309;28;20050;-70
2023/12/13 00:13:12;;;;;;;31.17;16.05;;;;;;;;;;5009740;28;20285;-69
2023/12/13 00:15:38;;;;;;;30.25;14.25;;;;;;;;;;5009103;28;20124;-69
2023/12/13 00:18:05;;;;;;;33.40;14.32;;;;;;;;;;5009551;28;20053;-71
2023/12/13 00:20:31;;;;;;;32.53;16.27;;;;;;;;;;5008968;28;20498;-70
2023/12/13 00:23:01;;;;;;;25.75;14.30;;;;;;;;;;5009802;28;20096;-70
2023/12/13 00:25:28;;;;;;;32.28;13.85;;;;;;;;;;5008710;28;20053;-70
2023/12/13 00:27:54;;;;;;;24.73;13.07;;;;;;;;;;5008929;28;20050;-70
2023/12/13 00:30:21;;;;;;;26.75;13.75;;;;;;;;;;5008443;28;20065;-70
2023/12/13 00:32:47;;;;;;;26.92;13.63;;;;;;;;;;5009315;28;20050;-68
2023/12/13 00:35:19;;;;;;;30.08;13.43;;;;;;;;;;5008735;28;20050;-70
2023/12/13 00:37:52;;;;;;;31.23;13.93;;;;;;;;;;5000951;28;20065;-70
2023/12/13 00:40:22;;;;;;;26.30;13.10;;;;;;;;;;5007894;28;20069;-70
2023/12/13 00:42:49;;;;;;;24.63;14.15;;;;;;;;;;5008492;28;20050;-69
2023/12/13 00:45:15;;;;;;;26.65;13.00;;;;;;;;;;5008493;28;20465;-70
2023/12/13 00:47:42;;;;;;;29.17;13.68;;;;;;;;;;5008434;28;20613;-72
2023/12/13 00:50:14;;;;;;;28.75;13.55;;;;;;;;;;5008679;28;20060;-70
2023/12/13 00:52:41;;;;;;;27.98;14.48;;;;;;;;;;5009099;28;20108;-70
2023/12/13 00:55:08;;;;;;;32.30;15.23;;;;;;;;;;5008187;28;20042;-70
2023/12/13 00:57:34;;;;;;;26.88;14.02;;;;;;;;;;5008993;28;20119;-70
2023/12/13 01:00:01;;;;;;;30.55;15.82;;;;;;;;;;5008516;28;20050;-69
2023/12/13 01:02:28;;;;;;;31.38;14.93;;;;;;;;;;5008742;28;20060;-69
2023/12/13 01:04:55;;;;;;;28.77;14.77;;;;;;;;;;5008430;28;20732;-70
2023/12/13 01:07:22;;;;;;;30.23;15.05;;;;;;;;;;5008784;28;20104;-68
2023/12/13 01:09:49;;;;;;;32.38;15.07;;;;;;;;;;5007290;28;20046;-69
2023/12/13 01:12:16;;;;;;;35.50;13.90;;;;;;;;;;5003711;28;20105;-70
2023/12/13 01:14:42;;;;;;;31.67;15.27;;;;;;;;;;4999276;28;20042;-70
2023/12/13 01:17:10;;;;;;;25.08;14.73;;;;;;;;;;5009910;28;20057;-72
2023/12/13 01:19:37;;;;;;;34.47;15.15;;;;;;;;;;5009707;28;20124;-70
2023/12/13 01:22:03;;;;;;;35.00;15.38;;;;;;;;;;5008900;28;20054;-71
2023/12/13 01:24:30;;;;;;;31.98;14.48;;;;;;;;;;5007835;28;20050;-72
2023/12/13 01:26:57;;;;;;;27.88;14.35;;;;;;;;;;4993159;28;20054;-69
2023/12/13 01:29:24;;;;;;;28.70;14.32;;;;;;;;;;5007501;28;20049;-68
2023/12/13 01:31:51;;;;;;;24.88;13.75;;;;;;;;;;5007920;28;20625;-69
2023/12/13 01:34:17;;;;;;;27.73;14.63;;;;;;;;;;5007096;28;20052;-72
2023/12/13 01:36:43;;;;;;;27.67;14.68;;;;;;;;;;5008111;28;20095;-72
2023/12/13 01:39:12;;;;;;;28.65;15.00;;;;;;;;;;5007816;28;20058;-71
2023/12/13 01:41:38;;;;;;;33.75;16.20;;;;;;;;;;5009834;28;20133;-71
2023/12/13 01:44:05;;;;;;;29.55;15.70;;;;;;;;;;5011296;28;20046;-71
2023/12/13 01:46:32;;;;;;;31.90;14.85;;;;;;;;;;5009905;28;20391;-70
2023/12/13 01:48:59;;;;;;;32.42;16.65;;;;;;;;;;5007991;28;20041;-71
2023/12/13 01:51:26;;;;;;;33.88;16.10;;;;;;;;;;5008211;28;20049;-71
2023/12/13 01:53:52;;;;;;;29.30;14.93;;;;;;;;;;5007421;28;20046;-70
2023/12/13 01:56:19;;;;;;;34.33;14.95;;;;;;;;;;5007392;28;20426;-71
2023/12/13 01:58:45;;;;;;;33.33;15.95;;;;;;;;;;5007654;28;20057;-71
2023/12/13 02:01:12;;;;;;;37.13;16.60;;;;;;;;;;5007209;28;20068;-71
2023/12/13 02:03:39;;;;;;;36.83;18.40;;;;;;;;;;5007860;28;20089;-71
2023/12/13 02:06:06;;;;;;;36.47;17.02;;;;;;;;;;5011264;28;20078;-71
2023/12/13 02:08:33;;;;;;;33.28;17.17;;;;;;;;;;5007983;28;20379;-70
2023/12/13 02:10:59;;;;;;;43.25;17.40;;;;;;;;;;5006920;28;20132;-72
2023/12/13 02:13:26;;;;;;;33.58;16.60;;;;;;;;;;5002987;28;20252;-73
2023/12/13 02:15:52;;;;;;;33.80;17.63;;;;;;;;;;4997592;28;20112;-73
2023/12/13 02:18:19;;;;;;;40.95;17.77;;;;;;;;;;5007163;28;20044;-71
2023/12/13 02:20:45;;;;;;;44.22;20.45;;;;;;;;;;5007385;28;20289;-73
2023/12/13 02:23:12;;;;;;;46.97;19.85;;;;;;;;;;5006467;28;20049;-73
2023/12/13 02:25:42;;;;;;;44.67;20.45;;;;;;;;;;5007513;28;20431;-73
2023/12/13 02:28:09;;;;;;;44.25;18.92;;;;;;;;;;5007595;28;20050;-74
2023/12/13 02:30:35;;;;;;;41.35;18.77;;;;;;;;;;5009991;28;20049;-74
2023/12/13 02:33:02;;;;;;;41.72;20.20;;;;;;;;;;5007256;28;20042;-75
2023/12/13 02:35:28;;;;;;;36.30;18.98;;;;;;;;;;5005635;28;20076;-72
2023/12/13 02:37:55;;;;;;;45.40;21.08;;;;;;;;;;5000434;28;20109;-74
2023/12/13 02:40:22;;;;;;;44.95;20.45;;;;;;;;;;5002680;28;20515;-72
2023/12/13 02:42:49;;;;;;;40.33;19.58;;;;;;;;;;5007427;28;20108;-71
2023/12/13 02:45:16;;;;;;;46.25;21.60;;;;;;;;;;5006638;28;20046;-72
2023/12/13 02:47:42;;;;;;;45.00;21.00;;;;;;;;;;5006631;28;20092;-72
2023/12/13 02:50:10;;;;;;;43.58;21.17;;;;;;;;;;5006366;28;20542;-72
2023/12/13 02:52:37;;;;;;;40.88;20.58;;;;;;;;;;5007663;28;20052;-74
2023/12/13 02:55:04;;;;;;;51.85;22.60;;;;;;;;;;5006491;28;20046;-72
2023/12/13 02:57:30;;;;;;;47.13;21.60;;;;;;;;;;5007278;28;20057;-71
2023/12/13 02:59:57;;;;;;;53.95;22.10;;;;;;;;;;5006527;28;20057;-72
2023/12/13 03:02:26;;;;;;;42.38;20.30;;;;;;;;;;5007181;28;20124;-72
2023/12/13 03:04:53;;;;;;;47.97;21.33;;;;;;;;;;5006330;28;20088;-72
2023/12/13 03:07:19;;;;;;;47.10;21.80;;;;;;;;;;5007104;28;20148;-73
2023/12/13 03:09:46;;;;;;;43.75;19.90;;;;;;;;;;4999089;28;20723;-72
2023/12/13 03:12:12;;;;;;;48.65;22.50;;;;;;;;;;5005297;28;20124;-73
2023/12/13 03:14:39;;;;;;;47.22;22.10;;;;;;;;;;5004337;28;20042;-74
2023/12/13 03:17:05;;;;;;;42.10;20.88;;;;;;;;;;5007039;28;20084;-73
2023/12/13 03:19:32;;;;;;;47.80;21.33;;;;;;;;;;5006189;28;20042;-73
2023/12/13 03:21:58;;;;;;;46.42;22.17;;;;;;;;;;5004718;28;20065;-72
2023/12/13 03:24:25;;;;;;;43.13;21.30;;;;;;;;;;5005292;28;20046;-74
2023/12/13 03:26:51;;;;;;;42.95;20.70;;;;;;;;;;4999434;28;20140;-74
2023/12/13 03:29:17;;;;;;;50.25;22.15;;;;;;;;;;5006364;28;20058;-74
2023/12/13 03:31:44;;;;;;;45.85;19.83;;;;;;;;;;5005921;28;20092;-74
2023/12/13 03:34:11;;;;;;;46.28;21.58;;;;;;;;;;5007208;28;20046;-73
2023/12/13 03:36:37;;;;;;;42.78;21.73;;;;;;;;;;5008670;28;20431;-74
2023/12/13 03:39:04;;;;;;;46.20;20.58;;;;;;;;;;5010013;28;20050;-74
2023/12/13 03:41:30;;;;;;;42.95;21.83;;;;;;;;;;5010463;28;20053;-74
2023/12/13 03:43:57;;;;;;;48.67;21.90;;;;;;;;;;5004243;28;20061;-74
2023/12/13 03:46:23;;;;;;;52.40;21.52;;;;;;;;;;5009930;28;20081;-74
2023/12/13 03:48:50;;;;;;;49.05;22.45;;;;;;;;;;5010157;28;20049;-74
2023/12/13 03:51:17;;;;;;;48.33;21.55;;;;;;;;;;5010099;28;20060;-74
2023/12/13 03:53:43;;;;;;;49.15;22.08;;;;;;;;;;5009460;28;20745;-73
2023/12/13 03:56:09;;;;;;;45.42;20.83;;;;;;;;;;5010268;28;20058;-75
2023/12/13 03:58:36;;;;;;;48.67;22.15;;;;;;;;;;5010048;28;20046;-74
2023/12/13 04:01:03;;;;;;;49.83;22.30;;;;;;;;;;5010833;28;20052;-75
2023/12/13 04:03:29;;;;;;;47.78;21.63;;;;;;;;;;5009433;28;20068;-74
2023/12/13 04:05:56;;;;;;;48.15;22.70;;;;;;;;;;5010225;28;20046;-74
2023/12/13 04:08:22;;;;;;;48.92;23.73;;;;;;;;;;5009276;28;20045;-74
2023/12/13 04:10:49;;;;;;;47.88;21.20;;;;;;;;;;5008748;28;20598;-75
2023/12/13 04:13:15;;;;;;;54.25;23.80;;;;;;;;;;5009092;28;20095;-74
2023/12/13 04:15:42;;;;;;;55.30;23.45;;;;;;;;;;5009156;28;20053;-71
2023/12/13 04:18:09;;;;;;;52.83;24.00;;;;;;;;;;5009111;28;20061;-75
2023/12/13 04:20:35;;;;;;;52.03;23.48;;;;;;;;;;5009407;28;20057;-73
2023/12/13 04:23:02;;;;;;;53.67;22.85;;;;;;;;;;5009460;28;20046;-74
2023/12/13 04:25:29;;;;;;;52.67;23.38;;;;;;;;;;5012550;28;20053;-75
2023/12/13 04:27:55;;;;;;;50.10;23.42;;;;;;;;;;5014276;28;20515;-75
2023/12/13 04:30:22;;;;;;;56.80;24.90;;;;;;;;;;5009063;28;20402;-73
2023/12/13 04:32:48;;;;;;;47.60;22.08;;;;;;;;;;5009364;28;20050;-74
2023/12/13 04:35:15;;;;;;;54.45;23.88;;;;;;;;;;5008906;28;20050;-74
2023/12/13 04:37:41;;;;;;;47.22;22.35;;;;;;;;;;5004054;28;20096;-75
2023/12/13 04:40:08;;;;;;;44.92;21.63;;;;;;;;;;5008609;28;20052;-73
2023/12/13 04:42:35;;;;;;;56.70;25.50;;;;;;;;;;5009411;28;20038;-72
2023/12/13 04:45:02;;;;;;;48.10;22.63;;;;;;;;;;5007926;28;20054;-72
2023/12/13 04:47:28;;;;;;;52.50;23.20;;;;;;;;;;5009112;28;20474;-73
2023/12/13 04:49:55;;;;;;;50.20;22.80;;;;;;;;;;5012237;28;20046;-74
2023/12/13 04:52:21;;;;;;;47.88;22.70;;;;;;;;;;5012623;28;20046;-73
2023/12/13 04:54:48;;;;;;;55.33;23.98;;;;;;;;;;5008979;28;20053;-74
2023/12/13 04:57:14;;;;;;;47.92;22.30;;;;;;;;;;5008503;28;20527;-75
2023/12/13 04:59:41;;;;;;;46.30;23.23;;;;;;;;;;5008220;28;20081;-74
2023/12/13 05:02:07;;;;;;;42.95;21.85;;;;;;;;;;5009174;28;20057;-74
2023/12/13 05:04:33;;;;;;;49.13;23.10;;;;;;;;;;5007713;28;20763;-74
2023/12/13 05:07:00;;;;;;;55.30;23.73;;;;;;;;;;5003968;28;20527;-73
2023/12/13 05:09:26;;;;;;;51.90;24.38;;;;;;;;;;5007722;28;20046;-74
2023/12/13 05:11:53;;;;;;;58.13;25.13;;;;;;;;;;5008457;28;20057;-74
2023/12/13 05:14:19;;;;;;;48.35;22.88;;;;;;;;;;5012420;28;20050;-73
2023/12/13 05:16:46;;;;;;;53.78;22.95;;;;;;;;;;5008729;28;20076;-74
2023/12/13 05:19:12;;;;;;;45.47;22.38;;;;;;;;;;5008136;28;20049;-75
2023/12/13 05:21:39;;;;;;;50.45;24.65;;;;;;;;;;5009334;28;20459;-73
2023/12/13 05:24:06;;;;;;;43.40;22.45;;;;;;;;;;5011799;28;20610;-75
2023/12/13 05:26:32;;;;;;;54.38;24.05;;;;;;;;;;5010369;28;20417;-75
2023/12/13 05:28:58;;;;;;;54.53;25.38;;;;;;;;;;5008713;28;20045;-75
2023/12/13 05:31:25;;;;;;;52.05;23.58;;;;;;;;;;5008268;28;20052;-74
2023/12/13 05:33:51;;;;;;;51.88;24.75;;;;;;;;;;5008216;28;20435;-74
2023/12/13 05:36:18;;;;;;;46.85;23.65;;;;;;;;;;5011112;28;20042;-75
2023/12/13 05:38:44;;;;;;;48.60;21.48;;;;;;;;;;5012636;28;20125;-75
2023/12/13 05:41:11;;;;;;;52.42;23.27;;;;;;;;;;5007896;28;20050;-72
2023/12/13 05:43:37;;;;;;;50.90;23.30;;;;;;;;;;5006490;28;20618;-71
2023/12/13 05:46:04;;;;;;;52.67;24.48;;;;;;;;;;5008442;28;20041;-74
2023/12/13 05:48:31;;;;;;;50.25;23.65;;;;;;;;;;5007054;28;20046;-75
2023/12/13 05:50:58;;;;;;;52.65;24.92;;;;;;;;;;5007894;28;20107;-74
2023/12/13 05:53:25;;;;;;;48.50;24.05;;;;;;;;;;5007773;28;20088;-74
2023/12/13 05:55:51;;;;;;;44.90;23.15;;;;;;;;;;5007638;28;20061;-74
2023/12/13 05:58:18;;;;;;;54.97;26.00;;;;;;;;;;5007340;28;20648;-74
2023/12/13 06:00:45;;;;;;;50.75;22.15;;;;;;;;;;5007448;28;20056;-75
2023/12/13 06:03:11;;;;;;;43.08;21.20;;;;;;;;;;5007299;28;20074;-75
2023/12/13 06:05:38;;;;;;;46.28;22.02;;;;;;;;;;5007243;28;20116;-74
2023/12/13 06:08:04;;;;;;;51.33;22.88;;;;;;;;;;5007357;28;20068;-75
2023/12/13 06:10:31;;;;;;;52.08;25.08;;;;;;;;;;5007094;28;20129;-75
2023/12/13 06:12:57;;;;;;;46.40;21.52;;;;;;;;;;5007448;28;20054;-73
2023/12/13 06:15:24;;;;;;;45.75;21.75;;;;;;;;;;5007423;28;20078;-73
2023/12/13 06:17:50;;;;;;;48.13;20.83;;;;;;;;;;5007506;28;20057;-71
2023/12/13 06:20:17;;;;;;;42.42;20.83;;;;;;;;;;5006948;28;20575;-73
2023/12/13 06:22:43;;;;;;;43.47;21.50;;;;;;;;;;5007683;28;20518;-73
2023/12/13 06:25:10;;;;;;;43.80;20.88;;;;;;;;;;5006946;28;20141;-73
2023/12/13 06:27:36;;;;;;;43.00;21.98;;;;;;;;;;5007329;28;20046;-72
2023/12/13 06:30:03;;;;;;;38.45;19.20;;;;;;;;;;5006726;28;20052;-72
2023/12/13 06:32:29;;;;;;;44.35;20.30;;;;;;;;;;5007302;28;20057;-73
2023/12/13 06:34:56;;;;;;;40.22;20.27;;;;;;;;;;5006623;28;20068;-75
2023/12/13 06:37:22;;;;;;;47.60;20.95;;;;;;;;;;5007345;28;20057;-72
2023/12/13 06:39:49;;;;;;;39.38;20.33;;;;;;;;;;5006966;28;20054;-72
2023/12/13 06:42:18;;;;;;;41.70;21.52;;;;;;;;;;5007347;28;20050;-73
2023/12/13 06:44:44;;;;;;;40.22;19.85;;;;;;;;;;5001840;28;20191;-73
2023/12/13 06:47:11;;;;;;;41.05;20.63;;;;;;;;;;5006755;28;20522;-71
2023/12/13 06:49:37;;;;;;;41.33;21.70;;;;;;;;;;5006522;28;20141;-72
2023/12/13 06:52:04;;;;;;;38.33;19.90;;;;;;;;;;5006858;28;20459;-72
2023/12/13 06:54:30;;;;;;;45.60;20.13;;;;;;;;;;5006792;28;20120;-73
2023/12/13 06:56:57;;;;;;;39.10;19.05;;;;;;;;;;5006674;28;20073;-72
2023/12/13 06:59:24;;;;;;;34.08;19.33;;;;;;;;;;5006977;28;20050;-73
2023/12/13 07:01:50;;;;;;;38.20;19.27;;;;;;;;;;5007037;28;20061;-73
2023/12/13 07:04:17;;;;;;;38.85;19.17;;;;;;;;;;5007338;28;20557;-73
2023/12/13 07:06:44;;;;;;;42.92;18.45;;;;;;;;;;5006981;28;20077;-72
2023/12/13 07:09:12;;;;;;;40.67;18.83;;;;;;;;;;5009048;28;20153;-74
2023/12/13 07:11:38;;;;;;;33.70;18.77;;;;;;;;;;5009042;28;20120;-72
2023/12/13 07:14:04;;;;;;;36.63;19.17;;;;;;;;;;5010768;28;20447;-72
2023/12/13 07:16:31;;;;;;;36.63;17.83;;;;;;;;;;5010198;28;20049;-72
2023/12/13 07:18:57;;;;;;;44.47;19.63;;;;;;;;;;5010634;28;20065;-74
2023/12/13 07:21:24;;;;;;;34.47;18.48;;;;;;;;;;5010711;28;20056;-73
2023/12/13 07:23:50;;;;;;;39.33;18.98;;;;;;;;;;5010398;28;20053;-73
2023/12/13 07:26:17;;;;;;;33.60;16.27;;;;;;;;;;5010423;28;20098;-73
2023/12/13 07:28:44;;;;;;;40.17;18.73;;;;;;;;;;5009916;28;20129;-73
2023/12/13 07:31:10;;;;;;;37.60;19.55;;;;;;;;;;5010692;28;20046;-72
2023/12/13 07:33:38;;;;;;;37.63;18.52;;;;;;;;;;5010561;28;20107;-73
2023/12/13 07:36:05;;;;;;;40.05;20.42;;;;;;;;;;5010733;28;20136;-72
2023/12/13 07:38:31;;;;;;;35.67;17.75;;;;;;;;;;5009636;28;20050;-75
2023/12/13 07:40:58;;;;;;;35.83;18.73;;;;;;;;;;5010181;28;20066;-73
2023/12/13 07:43:26;;;;;;;34.17;18.80;;;;;;;;;;5009859;28;20050;-72
2023/12/13 07:45:54;;;;;;;32.97;17.80;;;;;;;;;;5010244;28;20053;-73
2023/12/13 07:48:23;;;;;;;39.28;18.58;;;;;;;;;;5009602;28;20053;-72
2023/12/13 07:50:56;;;;;;;36.97;17.50;;;;;;;;;;5004512;28;20046;-73
2023/12/13 07:53:23;;;;;;;39.50;19.27;;;;;;;;;;5009520;28;20127;-74
2023/12/13 07:55:50;;;;;;;33.92;17.73;;;;;;;;;;5010823;28;20108;-73
2023/12/13 07:58:18;;;;;;;37.63;18.42;;;;;;;;;;5011163;28;20553;-72
2023/12/13 08:00:45;;;;;;;36.58;18.27;;;;;;;;;;5009719;28;20677;-73
2023/12/13 08:03:12;;;;;;;34.92;19.15;;;;;;;;;;5010061;28;20104;-75
2023/12/13 08:05:38;;;;;;;42.22;18.75;;;;;;;;;;5009565;28;20046;-73
2023/12/13 08:08:05;;;;;;;39.28;18.95;;;;;;;;;;5009898;28;20142;-73
2023/12/13 08:10:31;;;;;;;31.75;18.02;;;;;;;;;;5009573;28;20107;-74
2023/12/13 08:12:59;;;;;;;37.55;18.88;;;;;;;;;;5009945;28;20053;-71
2023/12/13 08:15:26;;;;;;;35.88;18.27;;;;;;;;;;5008157;28;20682;-70
2023/12/13 08:17:53;;;;;;;38.35;19.33;;;;;;;;;;5008560;28;20042;-74
2023/12/13 08:20:19;;;;;;;36.22;17.92;;;;;;;;;;5009949;28;20199;-73
2023/12/13 08:22:46;;;;;;;33.85;18.45;;;;;;;;;;5005181;28;20111;-72
2023/12/13 08:25:13;;;;;;;34.10;18.35;;;;;;;;;;5007714;28;20628;-74
2023/12/13 08:27:39;;;;;;;36.53;18.10;;;;;;;;;;5008912;28;20057;-71
2023/12/13 08:30:06;;;;;;;34.85;17.40;;;;;;;;;;5007876;28;20303;-72
2023/12/13 08:32:32;;;;;;;36.40;18.17;;;;;;;;;;5007206;28;20104;-68
2023/12/13 08:34:59;;;;;;;36.35;18.00;;;;;;;;;;5007710;28;20041;-75
2023/12/13 08:37:25;;;;;;;29.95;17.52;;;;;;;;;;5007844;28;20045;-72
2023/12/13 08:39:52;;;;;;;35.00;19.08;;;;;;;;;;5007960;28;20784;-71
2023/12/13 08:42:19;;;;;;;33.97;17.85;;;;;;;;;;5010012;28;20050;-74
2023/12/13 08:44:46;;;;;;;33.13;16.52;;;;;;;;;;5009767;28;20046;-74
2023/12/13 08:47:12;;;;;;;33.10;17.60;;;;;;;;;;5007905;28;20073;-73
2023/12/13 08:49:41;;;;;;;28.92;16.83;;;;;;;;;;5008370;28;20048;-75
2023/12/13 08:52:10;;;;;;;30.90;16.95;;;;;;;;;;5007621;28;20046;-74
2023/12/13 08:54:36;;;;;;;27.17;16.20;;;;;;;;;;5007966;28;20046;-72
2023/12/13 08:57:03;;;;;;;28.95;15.65;;;;;;;;;;5007956;28;20057;-73
2023/12/13 08:59:29;;;;;;;30.05;16.52;;;;;;;;;;5007757;28;20077;-75
2023/12/13 09:01:56;;;;;;;31.33;16.02;;;;;;;;;;5007970;28;20100;-73
2023/12/13 09:04:22;;;;;;;37.00;16.77;;;;;;;;;;5009288;28;20057;-72
2023/12/13 09:06:49;;;;;;;29.58;15.18;;;;;;;;;;5010207;28;20044;-73
2023/12/13 09:09:15;;;;;;;26.88;14.27;;;;;;;;;;5009889;28;20047;-73
2023/12/13 09:11:42;;;;;;;27.40;15.15;;;;;;;;;;5007431;28;20083;-75
2023/12/13 09:14:09;;;;;;;31.70;16.38;;;;;;;;;;5008108;28;20104;-68
2023/12/13 09:16:36;;;;;;;31.35;15.02;;;;;;;;;;5009030;28;20487;-73
2023/12/13 09:19:02;;;;;;;33.50;15.57;;;;;;;;;;5003529;28;20136;-72
2023/12/13 09:21:29;;;;;;;28.98;15.65;;;;;;;;;;4999822;28;20077;-71
2023/12/13 09:23:55;;;;;;;28.50;15.35;;;;;;;;;;5006528;28;20071;-67
2023/12/13 09:26:22;;;;;;;24.10;13.95;;;;;;;;;;5007574;28;20046;-68
2023/12/13 09:28:48;;;;;;;26.65;14.27;;;;;;;;;;5006217;28;21262;-68
2023/12/13 09:31:15;;;;;;;25.02;14.27;;;;;;;;;;5006207;28;20050;-70
2023/12/13 09:33:42;;;;;;;28.27;14.63;;;;;;;;;;5006268;28;20048;-69
2023/12/13 09:36:09;;;;;;;26.95;14.00;;;;;;;;;;5006770;28;20052;-71
2023/12/13 09:38:35;;;;;;;24.67;13.18;;;;;;;;;;5003249;28;20077;-69
2023/12/13 09:41:02;;;;;;;20.85;11.63;;;;;;;;;;5006958;28;20556;-66
2023/12/13 09:43:29;;;;;;;22.17;12.07;;;;;;;;;;5006587;28;20060;-73
2023/12/13 09:45:56;;;;;;;24.02;13.52;;;;;;;;;;4998360;28;20118;-71
2023/12/13 09:48:23;;;;;;;26.23;13.07;;;;;;;;;;5006703;28;20046;-69
2023/12/13 09:50:51;;;;;;;23.90;11.60;;;;;;;;;;5005791;28;20046;-73
2023/12/13 09:53:20;;;;;;;22.38;11.98;;;;;;;;;;5007060;28;20181;-75
2023/12/13 09:55:46;;;;;;;19.50;11.20;;;;;;;;;;5006154;28;20501;-72
2023/12/13 09:58:13;;;;;;;23.17;11.93;;;;;;;;;;5006873;28;20096;-71
2023/12/13 10:00:41;;;;;;;19.00;11.45;;;;;;;;;;5005599;28;20073;-67
2023/12/13 10:03:08;;;;;;;20.48;11.45;;;;;;;;;;5007337;28;20050;-70
2023/12/13 10:05:36;;;;;;;22.30;11.90;;;;;;;;;;5006314;28;20049;-68
2023/12/13 10:08:04;;;;;;;18.48;10.90;;;;;;;;;;5005774;28;20590;-71
2023/12/13 10:10:31;;;;;;;22.27;11.27;;;;;;;;;;5005353;28;20072;-71
2023/12/13 10:12:58;;;;;;;19.45;11.40;;;;;;;;;;5006430;28;20420;-71
2023/12/13 10:15:28;;;;;;;17.55;11.18;;;;;;;;;;5006187;28;20076;-71
2023/12/13 10:17:55;;;;;;;20.38;11.90;;;;;;;;;;5006551;28;20674;-71
2023/12/13 10:20:22;;;;;;;19.15;10.88;;;;;;;;;;5006742;28;20045;-72
2023/12/13 10:22:49;;;;;;;21.83;11.13;;;;;;;;;;5005942;28;20115;-71
2023/12/13 10:25:18;;;;;;;17.77;10.48;;;;;;;;;;5007345;28;20073;-70
2023/12/13 10:27:45;;;;;;;21.05;11.30;;;;;;;;;;4991868;28;20050;-69
2023/12/13 10:30:12;;;;;;;21.27;11.73;;;;;;;;;;5006618;28;20057;-71
2023/12/13 10:32:40;;;;;;;20.65;11.32;;;;;;;;;;5006786;28;20138;-69
2023/12/13 10:35:07;;;;;;;19.30;11.75;;;;;;;;;;5006793;28;20165;-70
2023/12/13 10:37:34;;;;;;;17.67;9.95;;;;;;;;;;5007224;28;20104;-69
2023/12/13 10:40:06;;;;;;;17.08;9.90;;;;;;;;;;5011052;28;20054;-71
2023/12/13 10:42:37;;;;;;;16.80;10.02;;;;;;;;;;5007894;28;20056;-71
2023/12/13 10:45:05;;;;;;;18.23;11.00;;;;;;;;;;5005681;28;20136;-69
2023/12/13 10:47:34;;;;;;;16.70;9.45;;;;;;;;;;5006596;28;20042;-70
2023/12/13 10:50:01;;;;;;;19.40;11.27;;;;;;;;;;5006808;28;20331;-70
2023/12/13 10:52:29;;;;;;;18.30;10.60;;;;;;;;;;5006844;28;20053;-70
2023/12/13 10:54:55;;;;;;;18.48;10.43;;;;;;;;;;5006688;28;20042;-71
2023/12/13 10:57:22;;;;;;;25.08;12.52;;;;;;;;;;5007422;28;20054;-73
2023/12/13 10:59:49;;;;;;;20.52;10.52;;;;;;;;;;5006641;28;20056;-73
2023/12/13 11:02:18;;;;;;;17.75;11.15;;;;;;;;;;5003410;28;20058;-69
2023/12/13 11:04:45;;;;;;;17.55;10.88;;;;;;;;;;5006943;28;20093;-73
2023/12/13 11:07:11;;;;;;;17.00;10.48;;;;;;;;;;5007994;28;20065;-75
2023/12/13 11:09:53;;;;;;;20.33;11.30;;;;;;;;;;5006588;28;20050;-71
2023/12/13 11:12:20;;;;;;;15.07;9.80;;;;;;;;;;5006735;28;20139;-75
2023/12/13 11:14:51;;;;;;;21.05;10.93;;;;;;;;;;5006393;28;20074;-78
2023/12/13 11:17:18;;;;;;;18.50;9.70;;;;;;;;;;5006712;28;20057;-74
2023/12/13 11:19:46;;;;;;;17.73;10.70;;;;;;;;;;5005944;28;20052;-76
2023/12/13 11:22:12;;;;;;;19.40;12.02;;;;;;;;;;4998638;28;20049;-77
2023/12/13 11:24:40;;;;;;;21.02;11.40;;;;;;;;;;5006034;28;20049;-70
2023/12/13 11:27:11;;;;;;;21.23;11.20;;;;;;;;;;5007541;28;20042;-72
2023/12/13 11:29:37;;;;;;;21.98;11.63;;;;;;;;;;5006949;28;20058;-72
2023/12/13 11:32:04;;;;;;;19.77;11.30;;;;;;;;;;5007031;28;20096;-71
2023/12/13 11:34:32;;;;;;;20.33;11.52;;;;;;;;;;5005466;28;20053;-71
2023/12/13 11:36:59;;;;;;;23.85;12.30;;;;;;;;;;5006352;28;20181;-73
2023/12/13 11:39:26;;;;;;;21.60;12.65;;;;;;;;;;5006382;28;20076;-71
2023/12/13 11:41:53;;;;;;;24.95;12.77;;;;;;;;;;5004630;28;20049;-73
2023/12/13 11:44:19;;;;;;;27.50;14.07;;;;;;;;;;5005828;28;20073;-71
2023/12/13 11:46:52;;;;;;;25.98;14.23;;;;;;;;;;5005937;28;20108;-74
2023/12/13 11:49:20;;;;;;;26.25;14.50;;;;;;;;;;5003437;28;20479;-76
2023/12/13 11:51:47;;;;;;;28.27;15.48;;;;;;;;;;5007292;28;20042;-75
2023/12/13 11:54:14;;;;;;;28.75;14.75;;;;;;;;;;5007224;28;20533;-75
2023/12/13 11:56:40;;;;;;;31.40;15.27;;;;;;;;;;5009962;28;20042;-76
2023/12/13 11:59:07;;;;;;;26.95;14.43;;;;;;;;;;5010153;28;20050;-77
2023/12/13 12:01:33;;;;;;;34.08;15.88;;;;;;;;;;5009558;28;20042;-69
2023/12/13 12:04:00;;;;;;;30.25;15.25;;;;;;;;;;5009220;28;20096;-74
2023/12/13 12:06:26;;;;;;;29.70;15.38;;;;;;;;;;5009454;28;20508;-73
2023/12/13 12:08:53;;;;;;;29.50;15.25;;;;;;;;;;5008762;28;20481;-68
2023/12/13 12:11:20;;;;;;;31.50;16.58;;;;;;;;;;5009230;28;20084;-72
2023/12/13 12:13:48;;;;;;;31.65;16.38;;;;;;;;;;5008714;28;20046;-74
2023/12/13 12:16:15;;;;;;;30.25;15.23;;;;;;;;;;5003703;28;20046;-69
2023/12/13 12:18:41;;;;;;;33.92;15.52;;;;;;;;;;5009220;28;20059;-69
2023/12/13 12:21:09;;;;;;;28.13;14.82;;;;;;;;;;5008847;28;20057;-73
2023/12/13 12:23:37;;;;;;;30.80;16.00;;;;;;;;;;5009166;28;20050;-67
2023/12/13 12:26:10;;;;;;;32.95;16.75;;;;;;;;;;5008721;28;20080;-71
2023/12/13 12:28:38;;;;;;;45.88;17.63;;;;;;;;;;4995729;28;20077;-77
2023/12/13 12:31:04;;;;;;;39.97;18.75;;;;;;;;;;5008592;28;20049;-67
2023/12/13 12:33:31;;;;;;;31.42;16.65;;;;;;;;;;5009251;28;20621;-67
2023/12/13 12:35:58;;;;;;;37.50;17.92;;;;;;;;;;5008558;28;20057;-66
2023/12/13 12:38:24;;;;;;;38.80;17.63;;;;;;;;;;5009490;28;20053;-65
2023/12/13 12:40:51;;;;;;;33.17;16.95;;;;;;;;;;5008329;28;20050;-67
2023/12/13 12:43:18;;;;;;;41.88;18.05;;;;;;;;;;5009003;28;20072;-67
2023/12/13 12:45:45;;;;;;;45.20;20.25;;;;;;;;;;5009049;28;20064;-66
2023/12/13 12:48:12;;;;;;;38.13;17.92;;;;;;;;;;5009790;28;20053;-69
2023/12/13 12:50:39;;;;;;;46.92;20.90;;;;;;;;;;5009623;28;20492;-71
2023/12/13 12:53:05;;;;;;;40.20;19.25;;;;;;;;;;5008304;28;20045;-67
2023/12/13 12:55:32;;;;;;;37.97;17.85;;;;;;;;;;5008739;28;20577;-66
2023/12/13 12:57:58;;;;;;;42.05;18.33;;;;;;;;;;5006743;28;20149;-70
2023/12/13 13:00:25;;;;;;;40.03;19.02;;;;;;;;;;5008404;28;20053;-72
2023/12/13 13:02:54;;;;;;;39.58;19.45;;;;;;;;;;5003478;28;20113;-70
2023/12/13 13:05:21;;;;;;;43.05;19.38;;;;;;;;;;5004669;28;20042;-70
2023/12/13 13:07:48;;;;;;;42.85;18.95;;;;;;;;;;5008196;28;20046;-70
2023/12/13 13:10:14;;;;;;;44.72;19.88;;;;;;;;;;5006328;28;20045;-71
2023/12/13 13:12:41;;;;;;;53.78;20.63;;;;;;;;;;5007834;28;20530;-69
2023/12/13 13:15:07;;;;;;;50.33;20.83;;;;;;;;;;5006213;28;20050;-70
2023/12/13 13:17:34;;;;;;;52.10;22.05;;;;;;;;;;5008291;28;20107;-70
2023/12/13 13:20:09;;;;;;;44.78;20.35;;;;;;;;;;5005251;28;20065;-69
2023/12/13 13:22:36;;;;;;;51.92;20.98;;;;;;;;;;5008366;28;20053;-71
2023/12/13 13:25:03;;;;;;;47.90;20.48;;;;;;;;;;5003499;28;20434;-70
2023/12/13 13:27:30;;;;;;;46.47;21.35;;;;;;;;;;5003469;28;20398;-70
2023/12/13 13:29:56;;;;;;;49.72;21.40;;;;;;;;;;5007359;28;20061;-70
2023/12/13 13:32:23;;;;;;;51.10;22.48;;;;;;;;;;5001006;28;20061;-73
2023/12/13 13:34:50;;;;;;;50.95;20.75;;;;;;;;;;4999796;28;20437;-73
2023/12/13 13:37:16;;;;;;;55.83;22.33;;;;;;;;;;4999625;28;20043;-71
2023/12/13 13:39:44;;;;;;;59.30;22.38;;;;;;;;;;5007771;28;20054;-67
2023/12/13 13:42:10;;;;;;;62.05;23.25;;;;;;;;;;5005023;28;20104;-70
2023/12/13 13:44:38;;;;;;;53.72;22.40;;;;;;;;;;5007767;28;20042;-69
2023/12/13 13:47:05;;;;;;;60.08;23.30;;;;;;;;;;5009391;28;20057;-70
2023/12/13 13:49:31;;;;;;;64.65;23.33;;;;;;;;;;5008291;28;20050;-72
2023/12/13 13:51:58;;;;;;;59.05;25.00;;;;;;;;;;5009760;28;20041;-69
2023/12/13 13:54:24;;;;;;;52.47;23.20;;;;;;;;;;5008426;28;20136;-70
2023/12/13 13:56:51;;;;;;;62.08;22.90;;;;;;;;;;5009336;28;20037;-68
2023/12/13 13:59:17;;;;;;;59.55;24.10;;;;;;;;;;5008303;28;20046;-71
2023/12/13 14:01:43;;;;;;;58.15;23.13;;;;;;;;;;5008923;28;20058;-71
2023/12/13 14:04:10;;;;;;;55.53;23.77;;;;;;;;;;5008338;28;20077;-69
2023/12/13 14:06:37;;;;;;;56.47;21.83;;;;;;;;;;5008731;28;20777;-71
2023/12/13 14:09:04;;;;;;;55.65;21.23;;;;;;;;;;5008531;28;20100;-75
2023/12/13 14:11:31;;;;;;;58.15;23.98;;;;;;;;;;5008657;28;20065;-64
2023/12/13 14:13:57;;;;;;;56.30;22.02;;;;;;;;;;5009344;28;20552;-70